Time,TemperatureF,DewpointF,PressureIn,WindDirection,WindDirectionDegrees,WindSpeedMPH,WindSpeedGustMPH,Humidity,HourlyPrecipIn,Conditions,Clouds,dailyrainin,SoftwareType,DateUTC
2013-08-25 00:22:00,89.0,70.0,30.05,ESE,114,0.0,-999.0,54,-99.99,,,-99.99,,2013-08-25 00:22:00,
2013-08-25 00:52:00,87.0,70.0,30.05,East,100,0.0,-999.0,57,-99.99,,,-99.99,,2013-08-25 00:52:00,
2013-08-25 01:22:00,85.0,70.0,30.05,ESE,110,0.0,-999.0,62,-99.99,,,-99.99,,2013-08-25 01:22:00,
2013-08-25 01:52:00,84.0,70.0,30.05,ESE,113,0.0,-999.0,64,-99.99,,,-99.99,,2013-08-25 01:52:00,
2013-08-25 02:22:00,83.0,70.0,30.06,ESE,103,0.0,-999.0,64,-99.99,,,-99.99,,2013-08-25 02:22:00,
2013-08-25 02:52:00,82.0,69.0,30.07,ESE,106,0.0,-999.0,65,-99.99,,,-99.99,,2013-08-25 02:52:00,
2013-08-25 03:23:00,81.0,68.0,30.08,SE,124,0.0,-999.0,65,-99.99,,,-99.99,,2013-08-25 03:23:00,
2013-08-25 03:54:00,81.0,69.0,30.09,ESE,113,0.0,-999.0,67,-99.99,,,-99.99,,2013-08-25 03:54:00,
2013-08-25 04:02:00,-999.0,-99.9,30.09,ESE,113,0.0,-999.0,-999,-99.99,,,-99.99,,2013-08-25 04:02:00,
2013-08-25 04:25:00,80.0,69.0,30.10,ESE,113,0.0,-999.0,69,-99.99,,,-99.99,,2013-08-25 04:25:00,
2013-08-25 04:54:00,79.0,69.0,30.10,ESE,113,0.0,-999.0,71,-99.99,,,-99.99,,2013-08-25 04:54:00,
2013-08-25 05:22:00,78.0,68.0,30.10,ESE,114,0.0,-999.0,72,-99.99,,,-99.99,,2013-08-25 05:22:00,
2013-08-25 05:52:00,78.0,69.0,30.10,ESE,116,0.0,-999.0,73,-99.99,,,-99.99,,2013-08-25 05:52:00,
2013-08-25 06:22:00,78.0,69.0,30.11,ESE,110,0.0,-999.0,73,-99.99,,,-99.99,,2013-08-25 06:22:00,
2013-08-25 06:52:00,77.0,68.0,30.11,SE,124,0.0,-999.0,74,-99.99,,,-99.99,,2013-08-25 06:52:00,
2013-08-25 07:22:00,77.0,69.0,30.11,ESE,114,0.0,-999.0,76,-99.99,,,-99.99,,2013-08-25 07:22:00,
2013-08-25 07:52:00,76.0,68.0,30.12,East,88,0.0,-999.0,77,-99.99,,,-99.99,,2013-08-25 07:52:00,
2013-08-25 08:21:00,76.0,69.0,30.12,ESE,113,0.0,-999.0,78,-99.99,,,-99.99,,2013-08-25 08:21:00,
2013-08-25 08:52:00,75.0,69.0,30.13,ESE,113,0.0,-999.0,81,-99.99,,,-99.99,,2013-08-25 08:52:00,
2013-08-25 09:22:00,75.0,69.0,30.13,ESE,113,0.0,-999.0,82,-99.99,,,-99.99,,2013-08-25 09:22:00,
2013-08-25 09:55:00,75.0,69.0,30.13,ESE,113,0.0,-999.0,83,-99.99,,,-99.99,,2013-08-25 09:55:00,
2013-08-25 10:22:00,74.0,69.0,30.13,ESE,113,0.0,-999.0,84,-99.99,,,-99.99,,2013-08-25 10:22:00,
2013-08-25 10:53:00,74.0,69.0,30.14,ESE,120,0.0,-999.0,85,-99.99,,,-99.99,,2013-08-25 10:53:00,
2013-08-25 11:22:00,74.0,69.0,30.15,SE,127,0.0,-999.0,85,-99.99,,,-99.99,,2013-08-25 11:22:00,
2013-08-25 11:52:00,74.0,70.0,30.16,SE,134,0.0,-999.0,87,-99.99,,,-99.99,,2013-08-25 11:52:00,
2013-08-25 12:22:00,73.0,69.0,30.16,SE,131,0.0,-999.0,88,-99.99,,,-99.99,,2013-08-25 12:22:00,
2013-08-25 12:52:00,74.0,70.0,30.17,ENE,73,0.0,-999.0,87,-99.99,,,-99.99,,2013-08-25 12:52:00,
2013-08-25 13:21:00,76.0,70.0,30.18,SE,145,0.0,-999.0,82,-99.99,,,-99.99,,2013-08-25 13:21:00,
2013-08-25 13:52:00,78.0,70.0,30.18,ESE,103,0.0,-999.0,77,-99.99,,,-99.99,,2013-08-25 13:52:00,
2013-08-25 14:24:00,80.0,71.0,30.18,ENE,71,0.0,-999.0,75,-99.99,,,-99.99,,2013-08-25 14:24:00,
2013-08-25 14:52:00,82.0,71.0,30.18,South,181,0.0,-999.0,70,-99.99,,,-99.99,,2013-08-25 14:52:00,
2013-08-25 15:23:00,84.0,71.0,30.18,ESE,113,0.0,-999.0,66,-99.99,,,-99.99,,2013-08-25 15:23:00,
2013-08-25 15:55:00,85.0,71.0,30.19,SW,215,0.0,-999.0,64,-99.99,,,-99.99,,2013-08-25 15:55:00,
2013-08-25 16:24:00,86.0,72.0,30.19,SE,144,0.0,-999.0,63,-99.99,,,-99.99,,2013-08-25 16:24:00,
2013-08-25 16:54:00,88.0,72.0,30.19,SSW,196,0.0,-999.0,60,-99.99,,,-99.99,,2013-08-25 16:54:00,
2013-08-25 17:22:00,89.0,73.0,30.18,SSE,162,0.0,-999.0,59,-99.99,,,-99.99,,2013-08-25 17:22:00,
2013-08-25 17:53:00,91.0,73.0,30.17,WSW,243,0.0,-999.0,55,-99.99,,,-99.99,,2013-08-25 17:53:00,
2013-08-25 18:22:00,91.0,73.0,30.16,NNE,14,0.0,-999.0,55,-99.99,,,-99.99,,2013-08-25 18:22:00,
2013-08-25 18:52:00,91.0,71.0,30.16,SE,136,1.0,-999.0,52,-99.99,,,-99.99,,2013-08-25 18:52:00,
2013-08-25 19:22:00,93.0,69.0,30.15,SSE,161,0.0,-999.0,46,-99.99,,,-99.99,,2013-08-25 19:22:00,
2013-08-25 19:53:00,92.0,71.0,30.15,SW,219,0.0,-999.0,51,-99.99,,,-99.99,,2013-08-25 19:53:00,
2013-08-25 20:23:00,92.0,70.0,30.13,ESE,103,0.0,-999.0,49,-99.99,,,-99.99,,2013-08-25 20:23:00,
2013-08-25 20:53:00,93.0,70.0,30.13,SW,217,0.0,-999.0,47,-99.99,,,-99.99,,2013-08-25 20:53:00,
2013-08-25 21:22:00,93.0,68.0,30.12,SW,227,0.0,-999.0,45,-99.99,,,-99.99,,2013-08-25 21:22:00,
2013-08-25 21:55:00,93.0,68.0,30.12,ESE,120,1.0,-999.0,45,-99.99,,,-99.99,,2013-08-25 21:55:00,
2013-08-25 22:24:00,93.0,68.0,30.12,SSW,200,1.0,-999.0,44,-99.99,,,-99.99,,2013-08-25 22:24:00,
2013-08-25 22:53:00,92.0,69.0,30.11,SSE,154,0.0,-999.0,47,-99.99,,,-99.99,,2013-08-25 22:53:00,
2013-08-25 23:23:00,92.0,69.0,30.11,SSE,147,0.0,-999.0,48,-99.99,,,-99.99,,2013-08-25 23:23:00,
2013-08-25 23:53:00,91.0,70.0,30.11,ESE,113,0.0,-999.0,50,-99.99,,,-99.99,,2013-08-25 23:53:00,